createdAt,value
2018-04-16T00:01:55.554Z,19.07
2018-04-16T00:04:23.042Z,19.18
2018-04-16T00:06:50.402Z,18.85
2018-04-16T00:09:17.885Z,18.92
2018-04-16T00:11:45.594Z,18.80
2018-04-16T00:14:13.107Z,18.91
2018-04-16T00:16:40.552Z,18.63
2018-04-16T00:19:07.914Z,18.57
2018-04-16T00:21:35.326Z,18.30
2018-04-16T00:24:03.865Z,18.19
2018-04-16T00:26:31.257Z,18.00
2018-04-16T00:28:58.695Z,18.17
2018-04-16T00:31:31.652Z,18.08
2018-04-16T00:34:04.750Z,18.58
2018-04-16T00:36:37.901Z,18.71
2018-04-16T00:39:10.869Z,18.70
2018-04-16T00:41:43.843Z,18.51
2018-04-16T00:44:16.747Z,18.27
2018-04-16T00:46:49.828Z,18.30
2018-04-16T00:49:22.848Z,18.53
2018-04-16T00:51:55.962Z,18.45
2018-04-16T00:54:29.008Z,18.56
2018-04-16T00:57:02.052Z,18.59
2018-04-16T00:59:35.187Z,18.45
2018-04-16T01:02:08.174Z,18.68
2018-04-16T01:04:41.288Z,18.55
2018-04-16T01:07:14.936Z,18.66
2018-04-16T01:09:47.984Z,18.61
2018-04-16T01:12:20.924Z,18.49
2018-04-16T01:14:53.846Z,18.73
2018-04-16T01:17:26.771Z,18.53
2018-04-16T01:19:59.759Z,18.59
2018-04-16T01:22:32.791Z,18.45
2018-04-16T01:25:05.659Z,18.49
2018-04-16T01:27:38.696Z,18.49
2018-04-16T01:30:11.553Z,18.68
2018-04-16T01:32:44.468Z,18.25
2018-04-16T01:35:17.394Z,18.60
2018-04-16T01:37:50.451Z,18.45
2018-04-16T01:40:23.371Z,18.39
2018-04-16T01:42:56.231Z,18.42
2018-04-16T01:45:29.086Z,18.59
2018-04-16T02:01:28.644Z,17.62
2018-04-16T02:04:01.521Z,17.86
2018-04-16T02:20:02.853Z,17.71
2018-04-16T02:22:35.769Z,18.08
2018-04-16T02:25:08.667Z,18.12
2018-04-16T02:27:41.651Z,17.84
2018-04-16T02:30:14.672Z,17.37
2018-04-16T02:32:47.581Z,17.37
2018-04-16T02:35:20.535Z,17.31
2018-04-16T02:37:53.478Z,17.24
2018-04-16T02:40:26.553Z,17.53
2018-04-16T02:42:59.474Z,17.05
2018-04-16T02:45:32.632Z,16.84
2018-04-16T02:48:05.541Z,16.66
2018-04-16T02:50:41.038Z,16.89
2018-04-16T02:53:13.986Z,17.05
2018-04-16T02:55:46.845Z,16.76
2018-04-16T02:58:19.816Z,16.89
2018-04-16T03:00:52.735Z,17.10
2018-04-16T03:03:25.682Z,16.97
2018-04-16T03:05:59.458Z,17.30
2018-04-16T03:08:32.428Z,17.31
2018-04-16T03:11:05.320Z,17.44
2018-04-16T03:13:38.236Z,17.25
2018-04-16T03:16:11.091Z,16.99
2018-04-16T03:18:43.968Z,17.07
2018-04-16T03:21:16.965Z,16.84
2018-04-16T03:23:49.851Z,16.52
2018-04-16T03:26:22.741Z,16.76
2018-04-16T03:28:55.606Z,16.72
2018-04-16T03:34:24.626Z,16.41
2018-04-16T03:36:57.606Z,16.49
2018-04-16T03:39:30.458Z,16.70
2018-04-16T03:42:03.465Z,16.61
2018-04-16T03:44:36.234Z,16.39
2018-04-16T03:47:09.095Z,16.26
2018-04-16T03:49:41.891Z,16.20
2018-04-16T03:52:14.873Z,16.19
2018-04-16T03:54:42.585Z,16.12
2018-04-16T03:57:09.973Z,15.89
2018-04-16T03:59:37.333Z,15.98
2018-04-16T04:02:04.773Z,15.76
2018-04-16T04:04:32.148Z,15.81
2018-04-16T04:06:59.532Z,16.02
2018-04-16T04:09:26.917Z,15.72
2018-04-16T04:11:54.327Z,15.57
2018-04-16T04:14:21.733Z,15.46
2018-04-16T04:16:49.116Z,15.90
2018-04-16T04:19:16.540Z,15.61
2018-04-16T04:21:43.878Z,15.63
2018-04-16T04:24:23.048Z,15.60
2018-04-16T04:27:02.039Z,15.52
2018-04-16T04:42:59.734Z,15.42
2018-04-16T04:45:27.115Z,15.68
2018-04-16T04:47:54.492Z,15.37
2018-04-16T04:50:21.872Z,15.39
2018-04-16T04:52:49.320Z,15.34
2018-04-16T04:55:16.719Z,15.28
2018-04-16T04:57:44.089Z,15.34
2018-04-16T05:00:11.489Z,15.38
2018-04-16T05:02:38.881Z,15.39
2018-04-16T05:05:06.260Z,15.21
2018-04-16T05:07:33.648Z,15.62
2018-04-16T05:10:01.038Z,15.52
2018-04-16T05:12:28.488Z,15.29
2018-04-16T05:14:55.863Z,15.21
2018-04-16T05:17:23.264Z,15.15
2018-04-16T05:19:50.658Z,15.05
2018-04-16T05:22:18.037Z,15.11
2018-04-16T05:24:45.419Z,15.11
2018-04-16T05:27:12.811Z,14.84
2018-04-16T05:29:40.198Z,14.78
2018-04-16T05:32:07.572Z,14.87
2018-04-16T05:34:34.963Z,14.90
2018-04-16T05:37:02.349Z,15.02
2018-04-16T05:39:29.718Z,14.98
2018-04-16T05:41:57.123Z,14.93
2018-04-16T05:44:24.859Z,14.91
2018-04-16T05:46:52.275Z,14.75
2018-04-16T05:49:19.669Z,15.00
2018-04-16T05:51:47.046Z,15.12
2018-04-16T05:54:14.460Z,15.21
2018-04-16T05:56:41.847Z,15.21
2018-04-16T05:59:09.248Z,15.41
2018-04-16T06:01:40.055Z,15.53
2018-04-16T06:04:07.699Z,15.32
2018-04-16T06:06:35.934Z,15.19
2018-04-16T06:09:03.274Z,15.23
2018-04-16T06:11:30.703Z,15.51
2018-04-16T06:13:58.103Z,15.56
2018-04-16T06:16:25.701Z,15.32
2018-04-16T06:18:53.126Z,15.20
2018-04-16T06:21:24.720Z,15.32
2018-04-16T06:23:52.163Z,15.33
2018-04-16T06:26:19.555Z,15.41
2018-04-16T06:28:46.936Z,15.15
2018-04-16T06:31:14.323Z,15.24
2018-04-16T06:33:41.695Z,15.41
2018-04-16T06:36:09.088Z,15.42
2018-04-16T06:38:36.459Z,15.63
2018-04-16T06:41:03.863Z,15.75
2018-04-16T06:43:31.252Z,15.71
2018-04-16T06:45:58.615Z,15.69
2018-04-16T06:48:25.998Z,16.06
2018-04-16T06:50:53.364Z,15.89
2018-04-16T06:53:20.989Z,15.92
2018-04-16T06:55:48.388Z,15.94
2018-04-16T06:58:15.789Z,16.04
2018-04-16T07:00:43.303Z,15.84
2018-04-16T07:03:17.499Z,15.91
2018-04-16T07:05:51.334Z,16.00
2018-04-16T07:08:19.818Z,16.03
2018-04-16T07:10:47.227Z,16.22
2018-04-16T07:13:14.627Z,16.41
2018-04-16T07:15:42.047Z,16.30
2018-04-16T07:18:09.439Z,16.20
2018-04-16T07:20:36.883Z,16.36
2018-04-16T07:23:04.240Z,16.58
2018-04-16T07:25:31.629Z,16.74
2018-04-16T07:27:58.998Z,16.67
2018-04-16T07:30:26.412Z,16.60
2018-04-16T07:32:53.779Z,16.79
2018-04-16T07:35:21.163Z,17.00
2018-04-16T07:37:48.572Z,17.04
2018-04-16T07:40:15.959Z,17.00
2018-04-16T07:42:43.348Z,17.20
2018-04-16T07:45:10.751Z,17.03
2018-04-16T07:47:38.144Z,17.25
2018-04-16T07:50:05.520Z,17.46
2018-04-16T07:52:32.985Z,17.32
2018-04-16T07:55:00.372Z,17.40
2018-04-16T07:57:27.774Z,17.55
2018-04-16T07:59:55.152Z,17.69
2018-04-16T08:02:22.560Z,17.74
2018-04-16T08:04:49.963Z,17.73
2018-04-16T08:07:17.411Z,17.53
2018-04-16T08:09:44.776Z,17.57
2018-04-16T08:12:12.155Z,17.62
2018-04-16T08:14:39.536Z,17.77
2018-04-16T08:17:06.920Z,17.77
2018-04-16T08:19:34.307Z,17.61
2018-04-16T08:22:01.702Z,17.96
2018-04-16T08:24:29.079Z,18.04
2018-04-16T08:26:56.484Z,18.15
2018-04-16T08:29:23.858Z,18.25
2018-04-16T08:31:51.257Z,18.20
2018-04-16T08:34:18.640Z,18.26
2018-04-16T08:36:46.022Z,18.24
2018-04-16T08:39:13.406Z,18.36
2018-04-16T08:41:40.780Z,18.52
2018-04-16T08:44:08.159Z,18.50
2018-04-16T08:46:35.564Z,18.73
2018-04-16T08:49:02.970Z,18.65
2018-04-16T08:51:30.425Z,18.81
2018-04-16T08:53:57.784Z,18.74
2018-04-16T08:56:25.175Z,18.97
2018-04-16T08:58:52.604Z,18.97
2018-04-16T09:01:20.136Z,18.84
2018-04-16T09:03:47.508Z,18.66
2018-04-16T09:06:15.004Z,18.81
2018-04-16T09:08:42.476Z,18.96
2018-04-16T09:11:09.851Z,19.05
2018-04-16T09:13:37.247Z,19.17
2018-04-16T09:16:04.631Z,19.16
2018-04-16T09:18:32.007Z,19.17
2018-04-16T09:20:59.393Z,19.17
2018-04-16T09:23:26.854Z,19.37
2018-04-16T09:25:54.227Z,19.66
2018-04-16T09:28:21.608Z,19.45
2018-04-16T09:30:49.040Z,19.74
2018-04-16T09:33:16.421Z,19.79
2018-04-16T09:35:43.796Z,19.39
2018-04-16T09:38:11.196Z,19.45
2018-04-16T09:40:38.697Z,19.85
2018-04-16T09:43:06.323Z,19.62
2018-04-16T09:45:33.840Z,19.81
2018-04-16T09:48:01.372Z,19.93
2018-04-16T09:50:28.779Z,19.96
2018-04-16T09:52:56.194Z,20.10
2018-04-16T09:55:23.935Z,20.01
2018-04-16T09:57:56.420Z,20.15
2018-04-16T10:00:30.213Z,20.14
2018-04-16T10:03:08.654Z,20.22
2018-04-16T10:05:36.047Z,20.55
2018-04-16T10:08:03.431Z,20.76
2018-04-16T10:10:30.992Z,20.87
2018-04-16T10:12:58.507Z,20.80
2018-04-16T10:15:25.896Z,20.49
2018-04-16T10:17:53.291Z,20.02
2018-04-16T10:20:20.672Z,19.79
2018-04-16T10:22:48.140Z,20.25
2018-04-16T10:25:15.622Z,20.64
2018-04-16T10:27:43.015Z,20.93
2018-04-16T10:30:10.454Z,20.99
2018-04-16T10:32:37.837Z,21.42
2018-04-16T10:35:05.216Z,20.89
2018-04-16T10:37:32.663Z,21.30
2018-04-16T10:40:00.036Z,21.80
2018-04-16T10:42:27.415Z,21.83
2018-04-16T10:44:55.060Z,21.88
2018-04-16T10:47:22.451Z,21.60
2018-04-16T10:49:49.851Z,21.63
2018-04-16T10:52:17.274Z,21.47
2018-04-16T10:54:45.544Z,21.85
2018-04-16T10:57:13.028Z,22.02
2018-04-16T10:59:40.440Z,21.98
2018-04-16T11:02:15.680Z,22.24
2018-04-16T11:04:51.854Z,22.36
2018-04-16T11:07:20.752Z,22.42
2018-04-16T11:09:48.162Z,22.03
2018-04-16T11:12:16.247Z,22.24
2018-04-16T11:14:44.021Z,22.10
2018-04-16T11:17:11.492Z,22.00
2018-04-16T11:19:38.998Z,21.97
2018-04-16T11:22:06.413Z,22.25
2018-04-16T11:24:33.897Z,22.89
2018-04-16T11:27:01.332Z,22.89
2018-04-16T11:29:29.570Z,22.63
2018-04-16T11:31:56.976Z,22.74
2018-04-16T11:34:24.424Z,23.07
2018-04-16T11:36:51.847Z,23.47
2018-04-16T11:39:19.242Z,23.59
2018-04-16T11:41:46.628Z,23.73
2018-04-16T11:44:14.008Z,22.99
2018-04-16T11:46:41.415Z,22.79
2018-04-16T11:49:08.839Z,23.01
2018-04-16T11:51:36.433Z,22.96
2018-04-16T11:54:03.802Z,23.00
2018-04-16T11:56:31.343Z,22.71
2018-04-16T11:58:58.824Z,22.75
2018-04-16T12:01:27.068Z,22.63
2018-04-16T12:03:54.464Z,22.47
2018-04-16T12:06:21.887Z,22.83
2018-04-16T12:08:49.281Z,23.26
2018-04-16T12:11:16.679Z,23.40
2018-04-16T12:13:44.136Z,23.61
2018-04-16T12:16:11.544Z,24.08
2018-04-16T12:18:38.925Z,24.00
2018-04-16T12:21:06.477Z,23.96
2018-04-16T12:23:33.881Z,24.62
2018-04-16T12:26:01.655Z,25.93
2018-04-16T12:28:29.049Z,26.27
2018-04-16T12:30:56.478Z,26.88
2018-04-16T12:33:23.868Z,28.09
2018-04-16T12:35:51.259Z,27.57
2018-04-16T12:38:18.662Z,28.73
2018-04-16T12:40:46.079Z,29.37
2018-04-16T12:43:13.505Z,30.11
2018-04-16T12:45:40.889Z,28.65
2018-04-16T12:48:08.333Z,27.26
2018-04-16T12:50:35.648Z,26.54
2018-04-16T12:53:03.070Z,28.16
2018-04-16T12:55:30.631Z,27.27
2018-04-16T12:57:58.031Z,27.95
2018-04-16T13:00:25.439Z,29.59
2018-04-16T13:02:52.840Z,29.97
2018-04-16T13:05:20.241Z,29.86
2018-04-16T13:07:47.737Z,30.04
2018-04-16T13:10:15.939Z,30.09
2018-04-16T13:12:43.410Z,30.67
2018-04-16T13:15:10.827Z,31.63
2018-04-16T13:17:38.239Z,32.33
2018-04-16T13:20:05.670Z,32.03
2018-04-16T13:22:33.048Z,29.51
2018-04-16T13:25:00.533Z,29.56
2018-04-16T13:27:28.205Z,28.87
2018-04-16T13:29:55.647Z,27.30
2018-04-16T13:32:23.024Z,26.74
2018-04-16T13:34:50.424Z,26.65
2018-04-16T13:37:17.837Z,27.83
2018-04-16T13:39:45.239Z,30.20
2018-04-16T13:42:12.630Z,29.94
2018-04-16T13:44:40.036Z,31.19
2018-04-16T13:47:07.448Z,30.29
2018-04-16T13:49:34.835Z,30.74
2018-04-16T13:52:02.207Z,31.35
2018-04-16T13:54:29.597Z,30.52
2018-04-16T13:56:56.974Z,30.83
2018-04-16T13:59:24.373Z,31.52
2018-04-16T14:01:51.916Z,32.36
2018-04-16T14:04:19.425Z,32.70
2018-04-16T14:06:46.848Z,32.93
2018-04-16T14:09:14.285Z,32.71
2018-04-16T14:11:41.659Z,32.50
2018-04-16T14:14:09.171Z,30.31
2018-04-16T14:16:36.558Z,31.04
2018-04-16T14:19:03.928Z,30.52
2018-04-16T14:21:31.334Z,31.32
2018-04-16T14:24:04.144Z,31.85
2018-04-16T14:26:31.605Z,32.68
2018-04-16T14:28:59.055Z,32.45
2018-04-16T14:31:26.440Z,34.03
2018-04-16T14:33:53.863Z,32.35
2018-04-16T14:36:22.672Z,31.96
2018-04-16T14:38:50.036Z,29.58
2018-04-16T14:41:17.437Z,29.46
2018-04-16T14:43:44.821Z,27.90
2018-04-16T14:46:12.195Z,28.46
2018-04-16T14:48:39.607Z,28.24
2018-04-16T14:51:06.988Z,29.94
2018-04-16T14:53:34.452Z,32.11
2018-04-16T14:56:02.197Z,33.38
2018-04-16T14:58:29.671Z,34.33
2018-04-16T15:00:57.094Z,33.67
2018-04-16T15:03:24.480Z,32.64
2018-04-16T15:05:51.865Z,32.22
2018-04-16T15:08:19.327Z,32.32
2018-04-16T15:10:46.705Z,32.18
2018-04-16T15:13:14.237Z,32.10
2018-04-16T15:15:41.645Z,32.47
2018-04-16T15:18:09.031Z,32.60
2018-04-16T15:20:36.524Z,32.60
2018-04-16T15:23:11.376Z,32.30
2018-04-16T15:25:45.950Z,31.27
2018-04-16T15:28:13.652Z,31.42
2018-04-16T15:30:41.165Z,31.79
2018-04-16T15:33:08.589Z,31.65
2018-04-16T15:35:36.017Z,32.02
2018-04-16T15:38:03.611Z,33.12
2018-04-16T15:40:31.471Z,34.10
2018-04-16T15:42:58.835Z,33.28
2018-04-16T15:45:26.862Z,33.07
2018-04-16T15:47:54.254Z,32.20
2018-04-16T15:50:21.697Z,31.75
2018-04-16T15:52:49.208Z,32.00
2018-04-16T15:55:16.587Z,32.27
2018-04-16T15:57:44.061Z,31.25
2018-04-16T16:00:11.450Z,32.62
2018-04-16T16:02:38.841Z,32.01
2018-04-16T16:05:06.239Z,32.05
2018-04-16T16:07:33.697Z,33.45
2018-04-16T16:10:01.192Z,33.78
2018-04-16T16:12:28.609Z,32.92
2018-04-16T16:14:56.106Z,32.68
2018-04-16T16:17:23.488Z,32.70
2018-04-16T16:19:50.880Z,32.63
2018-04-16T16:22:18.629Z,32.69
2018-04-16T16:24:46.090Z,32.13
2018-04-16T16:27:13.463Z,33.32
2018-04-16T16:29:40.913Z,33.58
2018-04-16T16:32:08.559Z,33.50
2018-04-16T16:34:36.011Z,33.48
2018-04-16T16:37:03.374Z,33.32
2018-04-16T16:39:31.251Z,32.38
2018-04-16T16:41:58.792Z,32.19
2018-04-16T16:44:26.244Z,32.12
2018-04-16T16:46:53.635Z,30.54
2018-04-16T16:49:21.042Z,28.68
2018-04-16T16:51:48.452Z,28.38
2018-04-16T16:54:15.892Z,28.24
2018-04-16T16:56:43.231Z,27.94
2018-04-16T16:59:10.628Z,26.46
2018-04-16T17:01:38.031Z,25.97
2018-04-16T17:04:05.421Z,26.15
2018-04-16T17:09:06.237Z,25.57
2018-04-16T17:11:33.644Z,25.42
2018-04-16T17:14:01.013Z,25.46
2018-04-16T17:16:28.416Z,25.19
2018-04-16T17:18:55.826Z,25.05
2018-04-16T17:21:23.223Z,24.89
2018-04-16T17:23:50.609Z,25.13
2018-04-16T17:26:18.022Z,25.03
2018-04-16T17:28:45.406Z,24.67
2018-04-16T17:31:19.004Z,24.65
2018-04-16T17:33:53.874Z,24.59
2018-04-16T17:36:21.572Z,24.39
2018-04-16T17:38:48.947Z,24.21
2018-04-16T17:41:16.608Z,24.05
2018-04-16T17:43:44.034Z,23.99
2018-04-16T17:46:11.395Z,24.03
2018-04-16T17:48:38.907Z,23.80
2018-04-16T17:51:06.285Z,24.10
2018-04-16T17:53:33.676Z,24.18
2018-04-16T17:56:01.064Z,24.11
2018-04-16T17:58:28.466Z,24.00
2018-04-16T18:00:55.841Z,24.33
2018-04-16T18:03:23.316Z,24.36
2018-04-16T18:05:50.738Z,24.27
2018-04-16T18:08:18.207Z,24.14
2018-04-16T18:10:45.609Z,23.92
2018-04-16T18:13:13.004Z,23.85
2018-04-16T18:15:40.421Z,24.09
2018-04-16T18:18:08.011Z,24.19
2018-04-16T18:20:35.393Z,24.33
2018-04-16T18:23:02.875Z,24.41
2018-04-16T18:25:30.258Z,24.35
2018-04-16T18:27:57.679Z,24.41
2018-04-16T18:30:25.085Z,24.40
2018-04-16T18:32:52.520Z,24.33
2018-04-16T18:35:19.975Z,23.86
2018-04-16T18:37:47.671Z,24.14
2018-04-16T18:40:15.056Z,24.03
2018-04-16T18:42:42.448Z,24.08
2018-04-16T18:45:09.848Z,24.09
2018-04-16T18:47:37.254Z,23.94
2018-04-16T18:50:04.665Z,23.95
2018-04-16T18:52:32.069Z,23.87
2018-04-16T18:54:59.940Z,23.71
2018-04-16T18:57:27.361Z,23.73
2018-04-16T18:59:54.766Z,23.67
2018-04-16T19:02:22.168Z,23.21
2018-04-16T19:04:49.707Z,22.94
2018-04-16T19:07:17.118Z,22.44
2018-04-16T19:09:44.549Z,22.40
2018-04-16T19:12:11.969Z,22.18
2018-04-16T19:14:39.388Z,22.14
2018-04-16T19:17:06.784Z,22.26
2018-04-16T19:19:34.163Z,22.43
2018-04-16T19:22:01.588Z,22.43
2018-04-16T19:24:29.125Z,22.55
2018-04-16T19:27:02.188Z,22.60
2018-04-16T19:29:29.666Z,22.68
2018-04-16T19:31:57.048Z,22.58
2018-04-16T19:34:30.057Z,22.54
2018-04-16T19:36:57.503Z,22.37
2018-04-16T19:39:24.970Z,22.52
2018-04-16T19:41:57.978Z,22.48
2018-04-16T19:44:25.455Z,22.53
2018-04-16T19:46:52.846Z,22.24
2018-04-16T19:49:25.832Z,21.98
2018-04-16T19:51:53.345Z,22.02
2018-04-16T19:54:21.001Z,21.98
2018-04-16T19:56:53.912Z,21.66
2018-04-16T19:59:21.304Z,21.79
2018-04-16T20:01:54.052Z,21.89
2018-04-16T20:04:21.520Z,21.95
2018-04-16T20:06:48.925Z,22.17
2018-04-16T20:09:16.331Z,22.00
2018-04-16T20:11:43.736Z,22.11
2018-04-16T20:14:11.793Z,22.03
2018-04-16T20:16:39.252Z,21.82
2018-04-16T20:19:06.751Z,21.56
2018-04-16T20:21:34.161Z,21.84
2018-04-16T20:24:01.819Z,21.79
2018-04-16T20:26:29.221Z,21.53
2018-04-16T20:28:56.611Z,21.55
2018-04-16T20:31:24.067Z,21.64
2018-04-16T20:33:51.510Z,21.65
2018-04-16T20:36:18.909Z,21.86
2018-04-16T20:38:46.327Z,21.80
2018-04-16T20:41:13.989Z,21.77
2018-04-16T20:43:41.657Z,21.88
2018-04-16T20:46:09.534Z,22.01
2018-04-16T20:48:37.932Z,21.87
2018-04-16T20:51:05.356Z,21.66
2018-04-16T20:53:32.749Z,21.53
2018-04-16T20:56:00.144Z,21.63
2018-04-16T20:58:27.598Z,21.62
2018-04-16T21:00:55.034Z,21.91
2018-04-16T21:03:22.442Z,21.90
2018-04-16T21:05:49.826Z,21.80
2018-04-16T21:08:17.305Z,21.61
2018-04-16T21:10:44.707Z,21.65
2018-04-16T21:13:12.094Z,21.66
2018-04-16T21:15:39.510Z,21.82
2018-04-16T21:18:06.887Z,21.60
2018-04-16T21:20:34.348Z,21.68
2018-04-16T21:23:01.752Z,21.60
2018-04-16T21:25:29.141Z,21.56
2018-04-16T21:27:56.552Z,21.52
2018-04-16T21:30:23.954Z,21.33
2018-04-16T21:32:51.335Z,21.57
2018-04-16T21:35:18.726Z,21.28
2018-04-16T21:37:46.115Z,21.34
2018-04-16T21:40:13.495Z,21.40
2018-04-16T21:42:40.931Z,21.08
2018-04-16T21:45:08.323Z,20.98
2018-04-16T21:47:35.735Z,21.21
2018-04-16T21:50:03.125Z,21.08
2018-04-16T21:52:30.520Z,20.94
2018-04-16T21:57:45.576Z,21.05
2018-04-16T22:00:13.007Z,20.65
2018-04-16T22:02:40.498Z,20.93
2018-04-16T22:05:07.855Z,20.73
2018-04-16T22:07:35.251Z,20.25
2018-04-16T22:10:02.639Z,20.45
2018-04-16T22:12:30.028Z,20.60
2018-04-16T22:14:57.429Z,20.54
2018-04-16T22:17:24.850Z,20.71
2018-04-16T22:19:52.272Z,20.64
2018-04-16T22:22:19.762Z,20.64
2018-04-16T22:24:47.184Z,20.50
2018-04-16T22:27:14.723Z,20.58
2018-04-16T22:29:42.117Z,20.45
2018-04-16T22:32:09.529Z,20.42
2018-04-16T22:34:37.026Z,20.24
2018-04-16T22:37:04.423Z,19.82
2018-04-16T22:39:31.816Z,20.22
2018-04-16T22:41:59.228Z,19.84
2018-04-16T22:44:26.695Z,19.87
2018-04-16T22:46:54.223Z,19.67
2018-04-16T22:49:21.717Z,19.73
2018-04-16T22:51:49.151Z,19.59
2018-04-16T22:54:16.555Z,19.80
2018-04-16T22:56:44.044Z,20.03
2018-04-16T22:59:11.432Z,19.82
2018-04-16T23:01:38.809Z,19.61
2018-04-16T23:04:06.207Z,19.84
2018-04-16T23:06:33.581Z,19.67
2018-04-16T23:09:00.986Z,19.82
2018-04-16T23:11:28.379Z,19.77
2018-04-16T23:13:55.770Z,20.03
2018-04-16T23:16:23.145Z,19.92
2018-04-16T23:18:50.520Z,19.79
2018-04-16T23:21:17.916Z,19.80
2018-04-16T23:23:45.303Z,19.76
2018-04-16T23:26:12.687Z,19.64
2018-04-16T23:28:40.087Z,19.64
2018-04-16T23:31:07.476Z,19.65
2018-04-16T23:33:34.851Z,19.60
2018-04-16T23:36:02.480Z,19.67
2018-04-16T23:38:29.860Z,19.60
2018-04-16T23:40:57.259Z,19.56
2018-04-16T23:43:24.651Z,19.38
2018-04-16T23:45:52.028Z,19.35
2018-04-16T23:48:19.616Z,19.07
2018-04-16T23:50:46.991Z,19.40
2018-04-16T23:53:14.445Z,19.31
2018-04-16T23:55:41.939Z,19.10
2018-04-16T23:58:09.599Z,19.28
